Lakehurst NAES /Maxfield Field
KNEL : now visible

Airfield :











YOU CAN JOIN US ON...

 
LOGIN :

Register | Disclaimer

   EN    FR    IT 

 









Legend :    VFR   Marginal VFR   IFR   Intensive IFR   Very Intensive IFR
Visi :
Ceiling :
>= 8 km
>= 3000ft
5 to 8 km
1000 to 3000 ft
1500m to 5 km
500 to 1000 ft
800 to 1500m
200 to 500 ft
< 800m
< 200 ft
Symbols :   Thunderstorms  Fog  Heavy snow  Heavy precipitations  Wind > 20 kt






- Airport Elevation : 101 ft
- IATA code : NEL


KNEL - Lakehurst NAES /Maxfield Field

CURRENT METAR :
  • 010211Z AUTO 17007KT 10SM BKN025 OVC065 15/15 A2943 RMK AO2 T01500150 $

EXPIRED METARs :
  • 010200Z AUTO 17006KT 10SM SCT025 BKN065 OVC080 14/14 A2943 RMK AO2 SLP965 T01440144 $
  • 010100Z AUTO 18006KT 10SM FEW021 BKN055 OVC075 16/15 A2941 RMK AO2 PK WND 19032/2333 RAB00230045E0057 SLP957 P0009 T01560150 $
  • 010024Z AUTO 21007G18KT 7SM -RA FEW011 SCT024 OVC046 16/16 A2941 RMK AO2 PK WND 19032/2333 RAB2345 P0008 $
  • 010015Z AUTO 23013G24KT 4SM RA BR FEW010 BKN013 OVC046 17/16 A2941 RMK AO2 PK WND 19032/2333 RAB2345 P0007 $
  • 010006Z AUTO 23019G27KT 2SM RA BR FEW009 BKN013 OVC033 17/16 A2940 RMK AO2 PK WND 19032/2333 RAB2345 P0006 $
  • 010000Z AUTO 22021G27KT 2 1/2SM +RA BR OVC013 18/17 A2939 RMK AO2 PK WND 19032/2333 RAB2345 PRESRR P0005 $
  • 302339Z AUTO 18014G32KT 8SM OVC014 19/18 A2936 RMK AO2 PK WND 19032/2333 T01890178 $

TAF N/A
KZNY FIR / North America



MET'MAP, your aeronautical weather chart ! - Copyright ORBIFLY December 2007 - Disclaimer

ORBIFLY MET'MAP TEAM :

Programming & Development : Alexandra Zaïnal
Concept & original design : Baudouin d'Aumeries
Assistance for programming : Marc-Olivier Méhu
Technical & hardware support : Manuel Goepfert

Contact : metmap@orbifly.com




SOURCES & CREDITS :

   NOAA       Earth
Advisory